11 a 16/1 - Pasaje FFs, eventos de PP abundante o severa en gran parte del país

Avatar de Usuario
Valentin
Mensajes: 2321
Registrado: Mar Oct 04, 2016 11:17 am
Ubicación: Venado Tuerto

Re: 11 a 20/1 - Pasaje FFs, eventos de PP abundante o severa en gran parte del país

Mensaje por Valentin » Mar Ene 14, 2020 1:18 pm

28,1 × 21,2 ahora en VT. Cálido, despejado y húmedo.

El FdR de esta mañana fue muy fotogénico también por acá.
Siempre del lado del calor, como toda buena persona.

Avatar de Usuario
Diecha
Mensajes: 11101
Registrado: Jue Ago 25, 2011 9:31 pm
Ubicación: Lomas de Zamora

Re: 11 a 20/1 - Pasaje FFs, eventos de PP abundante o severa en gran parte del país

Mensaje por Diecha » Mar Ene 14, 2020 1:20 pm


Avatar de Usuario
Santiago Linari
Mensajes: 7829
Registrado: Sab Dic 29, 2012 4:28 pm
Ubicación: Challao, Mendoza

Re: 11 a 20/1 - Pasaje FFs, eventos de PP abundante o severa en gran parte del país

Mensaje por Santiago Linari » Mar Ene 14, 2020 1:24 pm

Noo justo hoy tenía que volverme a Mendoza. Igual también se esperan tormentas jaja
Aunque creo que los modelos quieren ver mayores activaciones en el NE de la provincia, al este de la ciudad :?

Ahora estoy en el NE de San Luis y hay desarrollos por todos lados. Hermoso cielo.
El radar muestra una tormenta al oeste de San Luis capital.

Caluroso y húmedo.
¡Oops!

Algo salió mal

Avatar de Usuario
Marg Tor
Mensajes: 1601
Registrado: Jue Sep 20, 2018 8:54 pm
Ubicación: Rosario

Re: 11 a 20/1 - Pasaje FFs, eventos de PP abundante o severa en gran parte del país

Mensaje por Marg Tor » Mar Ene 14, 2020 1:24 pm

Por suerte ya rotó al NE el viento. Muy pesado.
28,1° x 22,2°
Nena, vi un rayo... vuelvo en unas horas...

You Tube
EMA Villa Gdor. Gálvez
EMA Villa Gdor. Gálvez Cooperativa

Avatar de Usuario
Diecha
Mensajes: 11101
Registrado: Jue Ago 25, 2011 9:31 pm
Ubicación: Lomas de Zamora

Re: 11 a 20/1 - Pasaje FFs, eventos de PP abundante o severa en gran parte del país

Mensaje por Diecha » Mar Ene 14, 2020 1:27 pm

- Ezeiza 13 hs: SAEZ 141600Z 05017KT 5000 -RA FEW005 SCT046 OVC100 22/21 Q1007
- Ezeiza 13:11 hs: SAEZ 141611Z 05018G29KT 5000 -RA FEW005 SCT046 OVC100 22/21 Q1005 (ráfaga de 54 Km/h)

Imagen

Avatar de Usuario
Diecha
Mensajes: 11101
Registrado: Jue Ago 25, 2011 9:31 pm
Ubicación: Lomas de Zamora

Re: 11 a 20/1 - Pasaje FFs, eventos de PP abundante o severa en gran parte del país

Mensaje por Diecha » Mar Ene 14, 2020 1:33 pm

- Córdoba 13:13 hs: SACO 141613Z 07008KT 4000 -TSRA SCT025 SCT040CB BKN050 28/25 Q1007 NOSIG RMK CB OBS VERTICAL SW NW

Imagen
Imagen
Imagen

Avatar de Usuario
Diecha
Mensajes: 11101
Registrado: Jue Ago 25, 2011 9:31 pm
Ubicación: Lomas de Zamora

Re: 11 a 20/1 - Pasaje FFs, eventos de PP abundante o severa en gran parte del país

Mensaje por Diecha » Mar Ene 14, 2020 1:43 pm






Imagen

Avatar de Usuario
MOTORHOMEMASTER
Mensajes: 4827
Registrado: Lun May 16, 2011 2:20 pm
Ubicación: Castelar o Hurlingham, Prov. Bs. As.

Re: 11 a 20/1 - Pasaje FFs, eventos de PP abundante o severa en gran parte del país

Mensaje por MOTORHOMEMASTER » Mar Ene 14, 2020 2:08 pm

Salio el sol en Castelar. Si bien esta muy fresco...el sol te asesina si salis.

Avatar de Usuario
Diecha
Mensajes: 11101
Registrado: Jue Ago 25, 2011 9:31 pm
Ubicación: Lomas de Zamora

Re: 11 a 20/1 - Pasaje FFs, eventos de PP abundante o severa en gran parte del país

Mensaje por Diecha » Mar Ene 14, 2020 2:16 pm



Avatar de Usuario
Santiago Linari
Mensajes: 7829
Registrado: Sab Dic 29, 2012 4:28 pm
Ubicación: Challao, Mendoza

Re: 11 a 20/1 - Pasaje FFs, eventos de PP abundante o severa en gran parte del país

Mensaje por Santiago Linari » Mar Ene 14, 2020 2:18 pm

Llueve en San Luis Cap
Muy húmedo.

Qué loco esos 25°C de Td en Córdoba. No se sentía semejante humedad cuando salimos de las sierras.
Aunque Rio Cuarto reporta 22°C, mucho más representativo.

Excelentes tus aportes Diecha!
¡Oops!

Algo salió mal

Responder